createdAt,value
2017-09-04T00:04:16.483Z,12.20
2017-09-04T00:09:22.309Z,12.10
2017-09-04T00:14:29.015Z,12.00
2017-09-04T00:24:48.594Z,12.00
2017-09-04T00:29:57.478Z,12.00
2017-09-04T00:35:11.439Z,12.00
2017-09-04T00:40:17.958Z,11.90
2017-09-04T00:45:26.970Z,11.90
2017-09-04T00:50:35.110Z,11.90
2017-09-04T00:55:44.328Z,11.90
2017-09-04T01:00:55.278Z,11.90
2017-09-04T01:05:59.735Z,11.90
2017-09-04T01:11:04.483Z,11.90
2017-09-04T01:16:10.626Z,11.90
2017-09-04T01:21:15.327Z,11.80
2017-09-04T01:26:21.251Z,11.80
2017-09-04T01:31:26.036Z,11.80
2017-09-04T01:36:30.510Z,11.80
2017-09-04T01:41:34.260Z,11.80
2017-09-04T01:46:37.289Z,11.80
2017-09-04T01:51:43.351Z,11.70
2017-09-04T01:56:49.460Z,11.70
2017-09-04T02:01:52.941Z,11.70
2017-09-04T02:06:57.733Z,11.70
2017-09-04T02:12:01.617Z,11.70
2017-09-04T02:17:09.559Z,11.60
2017-09-04T02:22:14.323Z,11.60
2017-09-04T02:27:22.076Z,11.60
2017-09-04T02:32:27.082Z,11.70
2017-09-04T02:37:31.463Z,11.60
2017-09-04T02:42:34.788Z,11.60
2017-09-04T02:47:39.000Z,11.70
2017-09-04T02:52:49.701Z,11.70
2017-09-04T02:57:57.840Z,11.70
2017-09-04T03:03:03.194Z,11.70
2017-09-04T03:08:07.857Z,11.70
2017-09-04T03:13:13.347Z,11.70
2017-09-04T03:18:16.478Z,11.70
2017-09-04T03:23:22.442Z,11.70
2017-09-04T03:28:31.087Z,11.70
2017-09-04T03:33:37.423Z,11.70
2017-09-04T03:38:48.488Z,11.70
2017-09-04T03:43:53.766Z,11.70
2017-09-04T03:48:58.480Z,11.70
2017-09-04T03:54:04.331Z,11.70
2017-09-04T03:59:07.629Z,11.70
2017-09-04T04:04:14.921Z,11.80
2017-09-04T04:09:20.240Z,11.80
2017-09-04T04:14:26.416Z,11.70
2017-09-04T04:19:30.646Z,11.70
2017-09-04T04:24:34.664Z,11.70
2017-09-04T04:29:39.579Z,11.70
2017-09-04T04:34:47.220Z,11.70
2017-09-04T04:39:54.450Z,11.70
2017-09-04T04:44:58.603Z,11.70
2017-09-04T04:50:03.997Z,11.70
2017-09-04T04:55:09.761Z,11.60
2017-09-04T05:00:13.109Z,11.70
2017-09-04T05:05:16.819Z,11.70
2017-09-04T05:10:20.730Z,11.70
2017-09-04T05:15:23.852Z,11.70
2017-09-04T05:20:27.091Z,11.70
2017-09-04T05:25:31.668Z,11.70
2017-09-04T05:30:35.325Z,11.70
2017-09-04T05:35:40.329Z,11.70
2017-09-04T05:40:44.562Z,11.70
2017-09-04T05:45:47.751Z,11.70
2017-09-04T05:50:50.937Z,11.80
2017-09-04T05:55:55.121Z,11.80
2017-09-04T06:01:00.050Z,11.80
2017-09-04T06:06:04.129Z,11.80
2017-09-04T06:11:08.651Z,11.80
2017-09-04T06:16:15.230Z,11.90
2017-09-04T06:21:22.346Z,11.80
2017-09-04T06:26:26.995Z,11.90
2017-09-04T06:31:30.086Z,11.90
2017-09-04T06:36:33.798Z,11.90
2017-09-04T06:41:36.958Z,12.00
2017-09-04T06:46:42.421Z,12.00
2017-09-04T06:51:45.646Z,12.00
2017-09-04T06:56:52.976Z,12.00
2017-09-04T07:01:56.217Z,12.00
2017-09-04T07:06:59.509Z,12.10
2017-09-04T07:12:03.491Z,12.10
2017-09-04T07:17:08.784Z,12.20
2017-09-04T07:22:15.564Z,12.20
2017-09-04T07:27:19.966Z,12.20
2017-09-04T07:32:26.892Z,12.30
2017-09-04T07:37:30.461Z,12.30
2017-09-04T07:42:37.340Z,12.40
2017-09-04T07:47:41.816Z,12.50
2017-09-04T07:52:46.390Z,12.40
2017-09-04T07:57:50.093Z,12.50
2017-09-04T08:02:53.424Z,12.60
2017-09-04T08:07:57.865Z,12.60
2017-09-04T08:13:01.666Z,12.70
2017-09-04T08:18:07.515Z,12.70
2017-09-04T08:23:14.906Z,12.80
2017-09-04T08:28:20.775Z,12.80
2017-09-04T08:33:27.087Z,12.80
2017-09-04T08:38:30.285Z,12.90
2017-09-04T08:43:34.390Z,12.90
2017-09-04T08:48:39.322Z,13.00
2017-09-04T08:53:43.266Z,13.00
2017-09-04T08:58:47.062Z,13.10
2017-09-04T09:03:51.323Z,13.10
2017-09-04T09:08:55.132Z,13.20
2017-09-04T09:13:59.311Z,13.30
2017-09-04T09:19:03.143Z,13.30
2017-09-04T09:24:11.328Z,13.40
2017-09-04T09:29:15.157Z,13.50
2017-09-04T09:34:18.770Z,13.60
2017-09-04T09:39:22.650Z,13.70
2017-09-04T09:44:25.772Z,13.80
2017-09-04T09:49:32.026Z,13.90
2017-09-04T09:54:36.970Z,14.00
2017-09-04T10:04:51.642Z,14.30
2017-09-04T10:10:00.287Z,14.40
2017-09-04T10:15:09.519Z,14.60
2017-09-04T10:20:15.804Z,15.00
2017-09-04T10:25:22.407Z,15.30
2017-09-04T10:30:28.067Z,15.80
2017-09-04T10:35:34.623Z,16.20
2017-09-04T10:40:44.734Z,16.60
2017-09-04T10:45:53.310Z,17.00
2017-09-04T10:56:19.777Z,17.90
2017-09-04T11:11:57.085Z,19.00
2017-09-04T11:17:07.070Z,19.30
2017-09-04T11:27:42.284Z,19.90
2017-09-04T11:32:50.228Z,20.20
2017-09-04T11:43:13.844Z,20.70
2017-09-04T11:48:20.360Z,21.20
2017-09-04T11:58:41.116Z,21.80
2017-09-04T12:03:47.588Z,21.70
2017-09-04T12:14:20.470Z,22.20
2017-09-04T12:24:47.135Z,22.60
2017-09-04T12:30:06.736Z,22.70
2017-09-04T12:40:21.405Z,23.10
2017-09-04T12:50:41.826Z,23.40
2017-09-04T12:55:54.131Z,23.60
2017-09-04T13:01:05.975Z,23.90
2017-09-04T13:06:15.595Z,23.80
2017-09-04T13:11:35.603Z,23.90
2017-09-04T13:22:18.787Z,24.10
2017-09-04T13:27:30.206Z,24.20
2017-09-04T13:32:39.228Z,24.20
2017-09-04T13:37:49.615Z,24.30
2017-09-04T13:48:46.246Z,24.30
2017-09-04T13:53:58.343Z,24.30
2017-09-04T13:59:10.286Z,24.30
2017-09-04T14:04:34.591Z,24.30
2017-09-04T14:09:43.437Z,24.10
2017-09-04T14:19:58.775Z,23.90
2017-09-04T14:25:04.332Z,23.80
2017-09-04T14:30:09.153Z,23.70
2017-09-04T14:46:41.539Z,23.60
2017-09-04T14:56:56.554Z,23.60
2017-09-04T15:02:03.611Z,23.60
2017-09-04T15:12:20.383Z,23.50
2017-09-04T15:17:28.772Z,23.40
2017-09-04T15:22:35.022Z,23.30
2017-09-04T15:32:59.250Z,23.10
2017-09-04T15:38:05.166Z,23.00
2017-09-04T15:43:09.739Z,22.90
2017-09-04T15:48:13.091Z,22.80
2017-09-04T15:53:17.245Z,22.70
2017-09-04T15:58:21.263Z,22.60
2017-09-04T16:03:24.500Z,22.50
2017-09-04T16:08:28.664Z,22.40
2017-09-04T16:13:34.979Z,22.30
2017-09-04T16:18:50.839Z,22.10
2017-09-04T16:29:36.851Z,21.90
2017-09-04T16:40:21.455Z,21.60
2017-09-04T16:45:45.909Z,21.50
2017-09-04T16:51:04.829Z,21.40
2017-09-04T16:56:13.858Z,21.20
2017-09-04T17:01:17.566Z,21.10
2017-09-04T17:06:21.953Z,21.00
2017-09-04T17:21:59.645Z,20.60
2017-09-04T17:27:06.983Z,20.40
2017-09-04T17:32:12.616Z,20.30
2017-09-04T17:37:19.479Z,20.20
2017-09-04T17:42:25.665Z,20.10
2017-09-04T17:47:33.657Z,20.00
2017-09-04T17:52:37.692Z,19.80
2017-09-04T17:57:43.668Z,19.80
2017-09-04T18:02:48.377Z,19.60
2017-09-04T18:07:55.250Z,19.50
2017-09-04T18:13:03.393Z,19.40
2017-09-04T18:18:07.480Z,19.30
2017-09-04T18:23:13.949Z,19.10
2017-09-04T18:28:22.128Z,19.00
2017-09-04T18:33:26.293Z,18.90
2017-09-04T18:38:32.247Z,18.70
2017-09-04T18:43:39.018Z,18.40
2017-09-04T18:48:43.030Z,18.40
2017-09-04T18:53:47.802Z,18.30
2017-09-04T18:58:54.139Z,18.20
2017-09-04T19:09:12.473Z,17.70
2017-09-04T19:14:19.251Z,17.70
2017-09-04T19:19:26.204Z,17.60
2017-09-04T19:24:30.602Z,17.40
2017-09-04T19:29:39.276Z,17.30
2017-09-04T19:34:45.528Z,17.10
2017-09-04T19:39:50.718Z,17.10
2017-09-04T19:50:11.981Z,16.90
2017-09-04T19:55:17.650Z,16.60
2017-09-04T20:00:21.428Z,16.60
2017-09-04T20:05:27.490Z,16.50
2017-09-04T20:10:33.273Z,16.40
2017-09-04T20:15:39.304Z,16.20
2017-09-04T20:20:44.343Z,16.20
2017-09-04T20:25:51.909Z,16.00
2017-09-04T20:30:58.580Z,16.00
2017-09-04T20:36:02.628Z,16.00
2017-09-04T20:41:07.712Z,15.90
2017-09-04T20:46:13.435Z,15.80
2017-09-04T20:51:17.523Z,15.70
2017-09-04T20:56:21.935Z,15.50
2017-09-04T21:01:25.706Z,15.50
2017-09-04T21:06:32.428Z,15.50
2017-09-04T21:11:40.478Z,15.40
2017-09-04T21:16:49.941Z,15.40
2017-09-04T21:21:54.583Z,15.30
2017-09-04T21:26:58.958Z,15.20
2017-09-04T21:32:04.163Z,15.20
2017-09-04T21:37:08.450Z,15.10
2017-09-04T21:42:16.625Z,15.10
2017-09-04T21:47:26.887Z,15.00
2017-09-04T21:52:34.788Z,15.00
2017-09-04T21:57:42.533Z,14.90
2017-09-04T22:08:12.429Z,14.80
2017-09-04T22:13:17.174Z,14.70
2017-09-04T22:18:23.034Z,14.60
2017-09-04T22:28:42.217Z,14.40
2017-09-04T22:33:46.905Z,14.40
2017-09-04T22:38:54.095Z,14.30
2017-09-04T22:43:58.939Z,14.20
2017-09-04T22:49:10.356Z,14.20
2017-09-04T22:54:18.468Z,14.10
2017-09-04T22:59:22.325Z,14.10
2017-09-04T23:04:27.072Z,14.00
2017-09-04T23:09:32.433Z,13.90
2017-09-04T23:14:40.040Z,13.80
2017-09-04T23:19:45.462Z,13.80
2017-09-04T23:24:50.721Z,13.80
2017-09-04T23:29:58.623Z,13.70
2017-09-04T23:35:04.565Z,13.70
2017-09-04T23:40:15.265Z,13.60
2017-09-04T23:45:24.458Z,13.60
2017-09-04T23:50:35.804Z,13.60
2017-09-04T23:55:38.853Z,13.50
